createdAt,value
2022-11-03T00:01:57.015Z,101323.94
2022-11-03T00:04:44.122Z,101361.09
2022-11-03T00:07:31.001Z,101360.22
2022-11-03T00:10:17.935Z,101361.94
2022-11-03T00:13:05.035Z,101360.09
2022-11-03T00:15:52.260Z,101348.91
2022-11-03T00:18:39.070Z,101360.09
2022-11-03T00:21:28.749Z,101357.44
2022-11-03T00:24:15.824Z,101362.00
2022-11-03T00:27:02.704Z,101368.88
2022-11-03T00:29:49.640Z,101364.41
2022-11-03T00:32:36.430Z,101361.75
2022-11-03T00:35:23.418Z,101359.03
2022-11-03T00:38:10.193Z,101352.88
2022-11-03T00:40:57.194Z,101345.75
2022-11-03T00:43:45.589Z,101351.06
2022-11-03T00:46:33.043Z,101293.91
2022-11-03T00:49:19.829Z,101343.88
2022-11-03T00:52:06.715Z,101338.81
2022-11-03T00:54:54.237Z,101356.38
2022-11-03T00:57:42.437Z,101352.81
2022-11-03T01:00:29.933Z,101350.09
2022-11-03T01:03:16.875Z,101356.25
2022-11-03T01:06:03.489Z,101358.91
2022-11-03T01:08:54.687Z,101355.41
2022-11-03T01:11:42.998Z,101355.41
2022-11-03T01:14:31.952Z,101358.00
2022-11-03T01:17:18.942Z,101356.25
2022-11-03T01:20:06.255Z,101280.06
2022-11-03T01:22:53.170Z,101355.34
2022-11-03T01:25:40.075Z,101353.53
2022-11-03T01:28:26.894Z,101362.38
2022-11-03T01:31:14.018Z,101352.63
2022-11-03T01:34:02.103Z,101311.13
2022-11-03T01:36:49.042Z,101357.00
2022-11-03T01:39:38.036Z,101349.97
2022-11-03T01:42:25.093Z,101357.94
2022-11-03T01:45:12.137Z,101358.78
2022-11-03T01:48:02.561Z,101351.69
2022-11-03T01:50:49.602Z,101353.47
2022-11-03T01:53:38.070Z,101351.69
2022-11-03T01:56:25.306Z,101350.81
2022-11-03T01:59:15.565Z,101349.09
2022-11-03T02:02:04.915Z,101344.03
2022-11-03T02:04:54.331Z,101330.09
2022-11-03T02:07:50.971Z,101353.47
2022-11-03T02:10:38.443Z,101344.56
2022-11-03T02:13:35.326Z,101336.66
2022-11-03T02:16:47.859Z,101348.16
2022-11-03T02:20:02.913Z,101341.97
2022-11-03T02:22:58.111Z,101350.81
2022-11-03T02:26:10.031Z,101353.53
2022-11-03T02:28:57.065Z,101342.88
2022-11-03T02:31:58.181Z,101345.53
2022-11-03T02:35:19.478Z,101341.09
2022-11-03T02:38:09.729Z,101336.72
2022-11-03T02:41:03.233Z,101333.13
2022-11-03T02:43:51.079Z,101339.38
2022-11-03T02:46:39.318Z,101333.19
2022-11-03T02:49:26.098Z,101334.97
2022-11-03T02:52:24.278Z,101337.63
2022-11-03T02:55:13.046Z,101333.19
2022-11-03T02:58:07.851Z,101327.06
2022-11-03T03:01:03.934Z,101331.53
2022-11-03T03:04:04.540Z,101320.91
2022-11-03T03:07:07.894Z,101322.75
2022-11-03T03:10:01.599Z,101326.22
2022-11-03T03:12:50.685Z,101325.34
2022-11-03T03:15:40.613Z,101323.63
2022-11-03T03:18:36.396Z,101321.94
2022-11-03T03:21:31.415Z,101329.72
2022-11-03T03:24:27.706Z,101314.78
2022-11-03T03:27:21.139Z,101327.13
2022-11-03T03:30:16.496Z,101313.84
2022-11-03T03:33:12.356Z,101320.03
2022-11-03T03:36:02.596Z,101321.81
2022-11-03T03:38:58.486Z,101322.69
2022-11-03T03:41:48.335Z,101324.41
2022-11-03T03:44:35.570Z,101312.25
2022-11-03T03:47:43.207Z,101281.38
2022-11-03T03:50:30.399Z,101338.56
2022-11-03T03:53:22.396Z,101329.72
2022-11-03T03:56:12.038Z,101334.97
2022-11-03T03:58:59.093Z,101331.47
2022-11-03T04:01:46.060Z,101328.81
2022-11-03T04:04:33.044Z,101329.66
2022-11-03T04:07:18.461Z,101295.13
2022-11-03T04:10:05.301Z,101237.22
2022-11-03T04:12:50.546Z,101327.81
2022-11-03T04:15:36.279Z,101331.34
2022-11-03T04:18:22.601Z,101326.88
2022-11-03T04:21:07.764Z,101322.44
2022-11-03T04:23:54.707Z,101322.44
2022-11-03T04:26:44.922Z,101298.91
2022-11-03T04:29:31.983Z,101333.94
2022-11-03T04:32:19.691Z,101330.34
2022-11-03T04:35:08.223Z,101328.56
2022-11-03T04:37:55.130Z,101333.88
2022-11-03T04:40:42.218Z,101324.09
2022-11-03T04:43:37.271Z,101325.03
2022-11-03T04:46:25.510Z,101317.88
2022-11-03T04:49:19.041Z,101325.84
2022-11-03T04:52:05.955Z,101328.50
2022-11-03T04:54:52.815Z,101328.50
2022-11-03T04:57:39.737Z,101324.03
2022-11-03T05:00:27.583Z,101322.25
2022-11-03T05:03:14.623Z,101322.25
2022-11-03T05:06:01.438Z,101321.50
2022-11-03T05:08:48.337Z,101324.91
2022-11-03T05:11:41.035Z,101322.38
2022-11-03T05:14:57.920Z,101325.78
2022-11-03T05:17:48.213Z,101324.84
2022-11-03T05:20:50.566Z,101321.31
2022-11-03T05:23:39.147Z,101321.31
2022-11-03T05:26:31.992Z,101315.94
2022-11-03T05:29:22.871Z,101324.78
2022-11-03T05:32:11.960Z,101323.84
2022-11-03T05:35:03.228Z,101319.47
2022-11-03T05:37:54.142Z,101319.47
2022-11-03T05:40:44.499Z,101316.81
2022-11-03T05:43:34.569Z,101322.13
2022-11-03T05:46:22.730Z,101314.13
2022-11-03T05:49:09.991Z,101314.13
2022-11-03T05:52:03.702Z,101307.03
2022-11-03T05:54:54.069Z,101313.19
2022-11-03T05:57:41.001Z,101298.78
2022-11-03T06:00:49.908Z,101310.59
2022-11-03T06:03:41.501Z,101317.69
2022-11-03T06:06:40.431Z,101317.63
2022-11-03T06:09:40.825Z,101325.66
2022-11-03T06:12:34.517Z,101310.53
2022-11-03T06:15:21.486Z,101317.63
2022-11-03T06:18:08.535Z,101319.34
2022-11-03T06:20:55.333Z,101323.72
2022-11-03T06:23:43.293Z,101323.72
2022-11-03T06:26:45.085Z,101322.00
2022-11-03T06:29:37.063Z,101326.38
2022-11-03T06:32:24.158Z,101330.78
2022-11-03T06:35:13.983Z,101328.97
2022-11-03T06:38:02.734Z,101325.41
2022-11-03T06:40:54.208Z,101325.47
2022-11-03T06:43:45.343Z,101330.66
2022-11-03T06:46:52.778Z,101325.31
2022-11-03T06:49:52.900Z,101316.41
2022-11-03T06:52:50.298Z,101311.97
2022-11-03T06:55:55.693Z,101321.66
2022-11-03T06:58:51.585Z,101311.91
2022-11-03T07:01:41.430Z,101315.44
2022-11-03T07:04:41.669Z,101318.09
2022-11-03T07:07:28.770Z,101311.84
2022-11-03T07:10:15.534Z,101309.13
2022-11-03T07:13:07.099Z,101310.84
2022-11-03T07:15:56.701Z,101306.41
2022-11-03T07:19:01.003Z,101304.59
2022-11-03T07:22:03.971Z,101297.47
2022-11-03T07:24:59.466Z,101306.25
2022-11-03T07:27:51.109Z,101308.03
2022-11-03T07:30:45.127Z,101310.63
2022-11-03T07:33:37.206Z,101216.34
2022-11-03T07:36:26.455Z,101308.78
2022-11-03T07:39:16.271Z,101307.00
2022-11-03T07:42:03.463Z,101294.94
2022-11-03T07:44:50.397Z,101308.66
2022-11-03T07:47:43.695Z,101307.78
2022-11-03T07:50:35.130Z,101313.97
2022-11-03T07:53:25.940Z,101317.50
2022-11-03T07:56:15.715Z,101297.13
2022-11-03T07:59:02.688Z,101312.19
2022-11-03T08:01:56.769Z,101315.75
2022-11-03T08:04:47.635Z,101322.91
2022-11-03T08:07:34.446Z,101311.31
2022-11-03T08:10:21.245Z,101310.44
2022-11-03T08:12:48.293Z,101307.91
2022-11-03T08:15:35.231Z,101305.25
2022-11-03T08:18:22.099Z,101304.47
2022-11-03T08:21:09.079Z,101309.84
2022-11-03T08:23:56.145Z,101305.38
2022-11-03T08:26:43.173Z,101305.38
2022-11-03T08:29:30.092Z,101288.19
2022-11-03T08:31:57.322Z,101305.44
2022-11-03T08:34:44.163Z,101308.38
2022-11-03T08:37:31.135Z,101311.72
2022-11-03T08:40:18.039Z,101287.38
2022-11-03T08:43:05.490Z,101311.66
2022-11-03T08:45:52.375Z,101302.78
2022-11-03T08:48:44.158Z,101298.34
2022-11-03T08:51:31.005Z,101301.88
2022-11-03T08:54:18.167Z,101307.13
2022-11-03T08:57:05.079Z,101302.66
2022-11-03T08:59:52.055Z,101288.84
2022-11-03T09:02:39.397Z,101309.84
2022-11-03T09:05:26.672Z,101306.41
2022-11-03T09:11:20.506Z,101309.94
2022-11-03T09:14:07.337Z,101259.91
2022-11-03T09:16:54.841Z,101313.38
2022-11-03T09:19:41.816Z,101310.69
2022-11-03T09:22:28.759Z,101309.84
2022-11-03T09:25:15.718Z,101318.69
2022-11-03T09:28:02.689Z,101326.66
2022-11-03T09:30:49.556Z,101321.34
2022-11-03T09:33:36.848Z,101324.00
2022-11-03T09:36:23.765Z,101328.41
2022-11-03T09:39:10.777Z,101320.44
2022-11-03T09:41:57.801Z,101323.94
2022-11-03T09:44:45.139Z,101325.69
2022-11-03T09:47:49.094Z,101321.22
2022-11-03T09:50:38.894Z,101322.91
2022-11-03T09:53:26.128Z,101325.50
2022-11-03T09:56:14.468Z,101333.34
2022-11-03T09:59:01.697Z,101331.44
2022-11-03T10:01:50.499Z,101324.34
2022-11-03T10:04:42.845Z,101327.88
2022-11-03T10:07:30.001Z,101325.22
2022-11-03T10:10:19.726Z,101338.25
2022-11-03T10:13:09.948Z,101304.28
2022-11-03T10:15:56.890Z,101330.16
2022-11-03T10:18:44.381Z,101319.63
2022-11-03T10:21:38.451Z,101326.53
2022-11-03T10:24:25.545Z,101316.72
2022-11-03T10:27:17.146Z,101330.00
2022-11-03T10:30:04.133Z,101333.47
2022-11-03T10:32:51.897Z,101332.53
2022-11-03T10:35:51.553Z,101332.47
2022-11-03T10:38:58.667Z,101333.28
2022-11-03T10:41:50.563Z,101334.94
2022-11-03T10:44:40.233Z,101342.84
2022-11-03T10:47:46.891Z,101277.88
2022-11-03T10:50:42.942Z,101326.94
2022-11-03T10:53:38.270Z,101338.41
2022-11-03T10:56:25.843Z,101332.06
2022-11-03T10:59:12.831Z,101340.84
2022-11-03T11:01:59.916Z,101339.03
2022-11-03T11:04:47.409Z,101331.13
2022-11-03T11:07:44.155Z,101316.31
2022-11-03T11:10:40.687Z,101324.75
2022-11-03T11:13:39.470Z,101327.34
2022-11-03T11:17:21.785Z,101317.47
2022-11-03T11:20:53.449Z,101329.88
2022-11-03T11:23:49.689Z,101336.03
2022-11-03T11:26:50.558Z,101286.66
2022-11-03T11:29:49.530Z,101326.28
2022-11-03T11:32:57.422Z,101331.53
2022-11-03T11:35:44.258Z,101335.13
2022-11-03T11:39:25.311Z,101333.38
2022-11-03T11:45:19.952Z,101331.59
2022-11-03T11:48:08.810Z,101313.09
2022-11-03T11:50:55.662Z,101336.03
2022-11-03T11:53:43.113Z,101330.59
2022-11-03T11:56:33.147Z,101347.44
2022-11-03T11:59:24.318Z,101343.13
2022-11-03T12:02:15.122Z,101345.84
2022-11-03T12:05:06.879Z,101357.47
2022-11-03T12:07:55.042Z,101339.91
2022-11-03T12:10:44.746Z,101347.97
2022-11-03T12:14:10.172Z,101333.00
2022-11-03T12:16:57.083Z,101350.69
2022-11-03T12:20:00.578Z,101333.84
2022-11-03T12:22:47.572Z,101331.25
2022-11-03T12:25:55.545Z,101334.88
2022-11-03T12:28:52.978Z,101339.31
2022-11-03T12:31:39.801Z,101304.91
2022-11-03T12:34:26.715Z,101341.97
2022-11-03T12:37:13.610Z,101340.25
2022-11-03T12:40:00.651Z,101311.72
2022-11-03T12:42:48.184Z,101353.56
2022-11-03T12:45:35.099Z,101339.38
2022-11-03T12:48:22.062Z,101338.59
2022-11-03T12:51:08.989Z,101344.91
2022-11-03T12:53:55.871Z,101275.16
2022-11-03T12:56:42.936Z,101355.69
2022-11-03T12:59:29.876Z,101351.34
2022-11-03T13:02:16.970Z,101349.69
2022-11-03T13:05:04.945Z,101349.75
2022-11-03T13:07:51.941Z,101350.56
2022-11-03T13:10:38.847Z,101348.91
2022-11-03T13:13:26.751Z,101342.63
2022-11-03T13:16:14.351Z,101343.66
2022-11-03T13:19:01.203Z,101346.31
2022-11-03T13:21:48.016Z,101343.56
2022-11-03T13:24:35.159Z,101302.00
2022-11-03T13:27:22.138Z,101347.00
2022-11-03T13:30:09.166Z,101279.72
2022-11-03T13:32:56.039Z,101337.50
2022-11-03T13:35:43.588Z,101339.97
2022-11-03T13:38:30.558Z,101351.44
2022-11-03T13:41:17.581Z,101333.66
2022-11-03T13:44:04.834Z,101327.41
2022-11-03T13:46:51.879Z,101325.59
2022-11-03T13:52:47.401Z,101327.41
2022-11-03T13:55:41.783Z,101332.81
2022-11-03T14:01:36.774Z,101333.66
2022-11-03T14:07:27.178Z,101335.41
2022-11-03T14:10:14.158Z,101332.75
2022-11-03T14:13:01.000Z,101321.22
2022-11-03T14:15:47.803Z,101333.66
2022-11-03T14:18:34.565Z,101324.91
2022-11-03T14:21:21.625Z,101326.53
2022-11-03T14:24:08.415Z,101338.91
2022-11-03T14:26:55.539Z,101339.78
2022-11-03T14:29:42.394Z,101346.72
2022-11-03T14:32:31.113Z,101344.06
2022-11-03T14:35:17.945Z,101346.78
2022-11-03T14:38:04.846Z,101338.88
2022-11-03T14:40:50.940Z,101359.34
2022-11-03T14:43:37.758Z,101356.69
2022-11-03T14:46:24.752Z,101361.19
2022-11-03T14:49:11.733Z,101357.72
2022-11-03T14:51:58.599Z,101361.38
2022-11-03T14:54:46.233Z,101349.94
2022-11-03T14:57:33.109Z,101290.41
2022-11-03T15:00:20.418Z,101340.63
2022-11-03T15:03:07.238Z,101280.09
2022-11-03T15:06:06.068Z,101355.31
2022-11-03T15:08:56.479Z,101358.03
2022-11-03T15:11:44.226Z,101346.63
2022-11-03T15:14:32.197Z,101337.78
2022-11-03T15:17:19.153Z,101347.59
2022-11-03T15:20:06.047Z,101340.56
2022-11-03T15:25:59.957Z,101335.31
2022-11-03T15:28:26.997Z,101340.63
2022-11-03T15:31:13.831Z,101341.56
2022-11-03T15:34:04.395Z,101335.38
2022-11-03T15:36:54.568Z,101279.03
2022-11-03T15:39:41.374Z,101336.19
2022-11-03T15:42:28.183Z,101330.88
2022-11-03T15:45:15.169Z,101335.25
2022-11-03T15:48:02.226Z,101336.19
2022-11-03T15:50:49.160Z,101337.22
2022-11-03T15:53:36.401Z,101349.63
2022-11-03T15:56:23.337Z,101336.38
2022-11-03T15:59:13.166Z,101339.88
2022-11-03T16:02:20.310Z,101341.78
2022-11-03T16:05:06.939Z,101343.56
2022-11-03T16:07:53.790Z,101340.03
2022-11-03T16:10:45.997Z,101340.03
2022-11-03T16:13:37.452Z,101313.34
2022-11-03T16:16:24.647Z,101350.72
2022-11-03T16:19:11.542Z,101357.91
2022-11-03T16:21:58.425Z,101346.41
2022-11-03T16:24:45.271Z,101320.59
2022-11-03T16:27:32.339Z,101356.16
2022-11-03T16:30:19.294Z,101352.66
2022-11-03T16:33:06.302Z,101356.16
2022-11-03T16:35:53.738Z,101362.41
2022-11-03T16:38:40.702Z,101355.34
2022-11-03T16:41:27.601Z,101362.50
2022-11-03T16:44:14.487Z,101353.75
2022-11-03T16:47:01.438Z,101369.59
2022-11-03T16:49:48.403Z,101358.94
2022-11-03T16:52:35.231Z,101368.66
2022-11-03T16:55:22.210Z,101355.47
2022-11-03T16:58:09.063Z,101365.28
2022-11-03T17:00:56.593Z,101295.81
2022-11-03T17:59:51.098Z,101360.66
2022-11-03T18:02:43.632Z,101378.31
2022-11-03T18:05:41.678Z,101378.38
2022-11-03T18:08:33.358Z,101390.72
2022-11-03T18:11:20.251Z,101374.84
2022-11-03T18:14:07.857Z,101376.59
2022-11-03T18:16:54.750Z,101380.97
2022-11-03T18:19:41.826Z,101380.16
2022-11-03T18:22:31.152Z,101381.84
2022-11-03T18:25:18.214Z,101377.38
2022-11-03T18:28:05.484Z,101379.13
2022-11-03T18:30:52.737Z,101377.25
2022-11-03T18:33:52.518Z,101384.38
2022-11-03T18:36:40.147Z,101373.81
2022-11-03T18:39:27.045Z,101320.34
2022-11-03T18:42:14.685Z,101337.50
2022-11-03T18:45:03.099Z,101380.09
2022-11-03T18:47:50.118Z,101384.50
2022-11-03T18:50:38.370Z,101388.94
2022-11-03T18:53:25.263Z,101394.25
2022-11-03T18:56:17.553Z,101396.09
2022-11-03T18:59:04.474Z,101392.66
2022-11-03T19:01:51.457Z,101388.25
2022-11-03T19:04:38.937Z,101386.53
2022-11-03T19:07:26.201Z,101385.66
2022-11-03T19:10:13.146Z,101383.88
2022-11-03T19:13:02.347Z,101378.00
2022-11-03T19:15:49.703Z,101383.25
2022-11-03T19:18:36.585Z,101385.00
2022-11-03T19:21:31.807Z,101381.53
2022-11-03T19:24:18.686Z,101390.47
2022-11-03T19:27:14.454Z,101390.41
2022-11-03T19:30:02.236Z,101382.50
2022-11-03T19:33:02.354Z,101393.06
2022-11-03T19:35:52.632Z,101382.50
2022-11-03T19:38:39.797Z,101376.41
2022-11-03T19:41:32.866Z,101361.97
2022-11-03T19:44:20.057Z,101373.00
2022-11-03T19:47:13.121Z,101373.06
2022-11-03T19:50:00.100Z,101371.34
2022-11-03T19:52:48.936Z,101377.38
2022-11-03T19:55:37.790Z,101365.16
2022-11-03T19:58:34.554Z,101369.56
2022-11-03T20:01:21.490Z,101378.50
2022-11-03T20:04:08.668Z,101387.41
2022-11-03T20:06:57.283Z,101393.66
2022-11-03T20:09:46.627Z,101339.88
2022-11-03T20:12:26.392Z,101384.03
2022-11-03T20:15:13.424Z,101387.63
2022-11-03T20:18:00.323Z,101394.66
2022-11-03T20:20:53.478Z,101398.25
2022-11-03T20:23:45.623Z,101398.25
2022-11-03T20:26:35.528Z,101407.13
2022-11-03T20:29:22.489Z,101346.38
2022-11-03T20:32:09.362Z,101392.75
2022-11-03T20:34:56.230Z,101311.38
2022-11-03T20:37:43.458Z,101396.31
2022-11-03T20:40:35.530Z,101399.97
2022-11-03T20:43:22.655Z,101389.34
2022-11-03T20:46:09.511Z,101391.00
2022-11-03T20:48:56.410Z,101395.44
2022-11-03T20:51:46.194Z,101392.72
2022-11-03T20:54:39.387Z,101387.44
2022-11-03T20:57:26.166Z,101362.50
2022-11-03T21:00:14.353Z,101388.47
2022-11-03T21:03:01.340Z,101388.53
2022-11-03T21:05:48.832Z,101393.06
2022-11-03T21:08:35.810Z,101394.84
2022-11-03T21:11:21.446Z,101388.59
2022-11-03T21:14:09.262Z,101384.53
2022-11-03T21:16:54.623Z,101399.22
2022-11-03T21:19:42.957Z,101410.72
2022-11-03T21:22:56.772Z,101400.97
2022-11-03T21:25:44.105Z,101398.19
2022-11-03T21:28:31.024Z,101400.78
2022-11-03T21:31:18.391Z,101400.78
2022-11-03T21:34:05.254Z,101402.53
2022-11-03T21:36:52.119Z,101406.09
2022-11-03T21:39:39.096Z,101410.56
2022-11-03T21:42:24.635Z,101408.81
2022-11-03T21:45:11.595Z,101410.56
2022-11-03T21:47:58.438Z,101402.56
2022-11-03T21:50:45.450Z,101406.91
2022-11-03T21:53:32.283Z,101406.91
2022-11-03T21:56:19.220Z,101402.41
2022-11-03T21:59:06.036Z,101403.34
2022-11-03T22:01:53.109Z,101405.06
2022-11-03T22:04:40.897Z,101326.97
2022-11-03T22:07:27.869Z,101393.50
2022-11-03T22:10:14.666Z,101388.06
2022-11-03T22:13:01.862Z,101390.72
2022-11-03T22:15:47.210Z,101300.06
2022-11-03T22:18:14.082Z,101385.34
2022-11-03T22:20:59.454Z,101383.56
2022-11-03T22:23:45.009Z,101312.63
2022-11-03T22:26:34.458Z,101384.44
2022-11-03T22:29:24.629Z,101387.03
2022-11-03T22:32:11.430Z,101396.78
2022-11-03T22:34:57.330Z,101395.00
2022-11-03T22:37:44.162Z,101383.63
2022-11-03T22:40:29.666Z,101396.66
2022-11-03T22:43:19.030Z,101339.50
2022-11-03T22:46:11.881Z,101381.09
2022-11-03T22:48:58.733Z,101390.47
2022-11-03T22:51:45.678Z,101388.75
2022-11-03T22:54:32.707Z,101253.84
2022-11-03T22:57:19.722Z,101390.47
2022-11-03T23:00:06.588Z,101388.75
2022-11-03T23:02:53.482Z,101391.22
2022-11-03T23:05:40.374Z,101391.22
2022-11-03T23:11:15.046Z,101392.97
2022-11-03T23:14:07.097Z,101388.50
2022-11-03T23:16:57.365Z,101350.50
2022-11-03T23:19:42.861Z,101391.97
2022-11-03T23:22:29.762Z,101380.47
2022-11-03T23:25:19.471Z,101386.53
2022-11-03T23:28:06.289Z,101381.09
2022-11-03T23:30:53.417Z,101381.91
2022-11-03T23:33:40.381Z,101380.09
2022-11-03T23:36:29.963Z,101376.59
2022-11-03T23:39:18.295Z,101390.66
2022-11-03T23:42:05.262Z,101374.00
2022-11-03T23:44:52.324Z,101388.81
2022-11-03T23:47:37.853Z,101382.56
2022-11-03T23:50:25.167Z,101379.00
2022-11-03T23:53:12.134Z,101384.25
2022-11-03T23:55:57.665Z,101386.84
2022-11-03T23:58:44.574Z,101391.22
